createdAt,value
2018-12-26T00:02:34.545Z,6.12
2018-12-26T00:05:23.911Z,6.55
2018-12-26T00:08:15.094Z,6.15
2018-12-26T00:11:23.422Z,6.17
2018-12-26T00:14:12.966Z,6.50
2018-12-26T00:17:02.209Z,6.40
2018-12-26T00:19:51.489Z,7.17
2018-12-26T00:22:42.416Z,6.08
2018-12-26T00:25:31.717Z,6.25
2018-12-26T00:28:40.076Z,6.30
2018-12-26T00:31:29.291Z,6.67
2018-12-26T00:34:18.604Z,6.55
2018-12-26T00:37:07.826Z,7.15
2018-12-26T00:40:16.241Z,7.35
2018-12-26T00:43:05.812Z,6.95
2018-12-26T00:45:55.110Z,7.00
2018-12-26T00:49:03.451Z,7.15
2018-12-26T00:51:52.747Z,7.33
2018-12-26T00:54:42.065Z,7.00
2018-12-26T00:57:31.390Z,7.50
2018-12-26T01:00:39.693Z,6.50
2018-12-26T01:03:29.363Z,7.60
2018-12-26T01:06:18.685Z,6.62
2018-12-26T01:09:27.645Z,7.45
2018-12-26T01:12:35.904Z,6.50
2018-12-26T01:15:44.144Z,7.92
2018-12-26T01:18:33.395Z,6.85
2018-12-26T01:21:15.807Z,7.83
2018-12-26T01:24:24.160Z,7.17
2018-12-26T01:27:13.458Z,7.80
2018-12-26T01:30:21.873Z,7.25
2018-12-26T01:33:11.185Z,7.33
2018-12-26T01:36:00.475Z,7.10
2018-12-26T01:41:45.135Z,6.92
2018-12-26T01:44:54.220Z,6.87
2018-12-26T01:47:44.433Z,7.33
2018-12-26T01:50:34.071Z,7.78
2018-12-26T01:53:23.380Z,7.15
2018-12-26T01:56:12.680Z,7.62
2018-12-26T02:01:56.521Z,8.10
2018-12-26T02:04:45.838Z,7.60
2018-12-26T02:07:35.058Z,7.58
2018-12-26T02:10:43.398Z,8.08
2018-12-26T02:13:32.703Z,7.90
2018-12-26T02:16:21.928Z,7.62
2018-12-26T02:19:11.532Z,7.58
2018-12-26T02:21:53.188Z,7.75
2018-12-26T02:25:01.493Z,7.97
2018-12-26T02:27:55.905Z,8.18
2018-12-26T02:31:04.489Z,8.35
2018-12-26T02:34:30.853Z,7.97
2018-12-26T02:37:40.602Z,8.35
2018-12-26T02:40:19.609Z,8.03
2018-12-26T02:43:09.122Z,8.35
2018-12-26T02:49:06.680Z,8.10
2018-12-26T02:51:56.041Z,8.25
2018-12-26T02:54:45.354Z,8.00
2018-12-26T02:57:34.719Z,7.72
2018-12-26T03:00:24.539Z,7.53
2018-12-26T03:03:13.761Z,8.28
2018-12-26T03:06:04.864Z,8.63
2018-12-26T03:08:54.181Z,8.38
2018-12-26T03:11:43.402Z,8.13
2018-12-26T03:14:51.743Z,9.15
2018-12-26T03:17:41.044Z,8.28
2018-12-26T03:20:22.961Z,8.58
2018-12-26T03:23:12.181Z,8.38
2018-12-26T03:26:01.630Z,8.55
2018-12-26T03:28:50.941Z,8.90
2018-12-26T03:31:59.190Z,8.20
2018-12-26T03:34:48.504Z,9.28
2018-12-26T03:37:37.998Z,9.15
2018-12-26T03:40:27.601Z,9.50
2018-12-26T03:43:16.966Z,9.40
2018-12-26T03:49:21.937Z,9.68
2018-12-26T03:52:30.253Z,9.75
2018-12-26T03:55:19.645Z,9.75
2018-12-26T03:58:09.372Z,9.63
2018-12-26T04:00:58.816Z,9.83
2018-12-26T04:03:48.227Z,9.55
2018-12-26T04:06:56.560Z,9.80
2018-12-26T04:09:45.974Z,10.05
2018-12-26T04:12:54.423Z,10.05
2018-12-26T04:15:43.905Z,9.58
2018-12-26T04:18:33.212Z,9.88
2018-12-26T04:21:15.638Z,10.58
2018-12-26T04:27:20.619Z,10.75
2018-12-26T04:30:10.514Z,10.30
2018-12-26T04:32:59.750Z,10.08
2018-12-26T04:36:08.122Z,9.85
2018-12-26T04:39:16.479Z,9.90
2018-12-26T04:42:24.816Z,9.85
2018-12-26T04:45:14.134Z,10.45
2018-12-26T04:48:03.444Z,10.43
2018-12-26T04:50:52.765Z,9.65
2018-12-26T04:53:42.413Z,9.85
2018-12-26T04:56:50.685Z,10.13
2018-12-26T04:59:58.964Z,9.48
2018-12-26T05:02:48.321Z,9.48
2018-12-26T05:05:37.583Z,9.85
2018-12-26T05:08:26.810Z,9.35
2018-12-26T05:14:10.894Z,8.40
2018-12-26T05:17:19.242Z,9.30
2018-12-26T05:20:01.311Z,9.05
2018-12-26T05:23:09.678Z,8.73
2018-12-26T05:25:59.341Z,7.85
2018-12-26T05:28:48.573Z,7.12
2018-12-26T05:31:56.845Z,6.17
2018-12-26T05:34:46.157Z,6.53
2018-12-26T05:37:54.476Z,6.00
2018-12-26T05:41:02.743Z,5.47
2018-12-26T05:43:52.396Z,5.90
2018-12-26T05:46:41.646Z,6.12
2018-12-26T05:49:30.936Z,5.87
2018-12-26T05:52:20.249Z,5.87
2018-12-26T05:55:09.870Z,5.70
2018-12-26T05:57:59.183Z,5.00
2018-12-26T06:01:07.457Z,5.65
2018-12-26T06:03:56.916Z,6.10
2018-12-26T06:06:46.158Z,5.53
2018-12-26T06:09:35.672Z,5.03
2018-12-26T06:12:24.997Z,6.08
2018-12-26T06:15:14.242Z,5.53
2018-12-26T06:18:03.498Z,5.92
2018-12-26T06:20:45.740Z,6.08
2018-12-26T06:23:53.981Z,6.15
2018-12-26T06:26:43.301Z,6.37
2018-12-26T06:29:32.520Z,5.72
2018-12-26T06:32:40.784Z,6.72
2018-12-26T06:35:30.716Z,6.35
2018-12-26T06:38:19.950Z,6.80
2018-12-26T06:41:09.277Z,6.60
2018-12-26T06:47:26.090Z,7.30
2018-12-26T06:50:15.418Z,6.78
2018-12-26T06:56:12.999Z,5.92
2018-12-26T06:59:02.226Z,6.28
2018-12-26T07:04:46.555Z,6.55
2018-12-26T07:07:35.890Z,7.25
2018-12-26T07:13:19.841Z,6.03
2018-12-26T07:16:28.179Z,6.40
2018-12-26T07:19:17.555Z,6.08
2018-12-26T07:22:00.154Z,6.17
2018-12-26T07:25:08.481Z,6.12
2018-12-26T07:27:57.718Z,6.87
2018-12-26T07:30:47.042Z,6.17
2018-12-26T07:33:36.267Z,6.75
2018-12-26T07:36:44.922Z,6.17
2018-12-26T07:39:34.524Z,6.83
2018-12-26T07:42:23.765Z,7.12
2018-12-26T07:45:32.023Z,7.85
2018-12-26T07:48:21.497Z,8.85
2018-12-26T07:51:29.836Z,8.33
2018-12-26T07:54:20.730Z,7.58
2018-12-26T07:57:10.362Z,8.40
2018-12-26T07:59:59.633Z,8.35
2018-12-26T08:02:48.888Z,7.65
2018-12-26T08:05:57.496Z,8.50
2018-12-26T08:09:05.815Z,7.83
2018-12-26T08:11:55.354Z,7.30
2018-12-26T08:15:10.551Z,7.55
2018-12-26T08:17:54.660Z,7.65
2018-12-26T08:20:36.304Z,7.20
2018-12-26T08:23:25.543Z,7.03
2018-12-26T08:26:14.870Z,8.80
2018-12-26T08:29:23.460Z,7.75
2018-12-26T08:32:12.953Z,7.95
2018-12-26T08:35:21.237Z,7.55
2018-12-26T08:38:10.541Z,8.08
2018-12-26T08:40:59.803Z,7.55
2018-12-26T08:43:49.032Z,6.45
2018-12-26T08:46:57.373Z,7.15
2018-12-26T08:49:47.026Z,7.35
2018-12-26T08:52:55.371Z,6.92
2018-12-26T08:56:03.909Z,7.03
2018-12-26T08:58:53.457Z,7.50
2018-12-26T09:01:44.160Z,6.58
2018-12-26T09:04:33.385Z,7.50
2018-12-26T09:07:22.912Z,7.12
2018-12-26T09:10:12.353Z,7.15
2018-12-26T09:13:01.651Z,6.40
2018-12-26T09:19:18.216Z,6.87
2018-12-26T09:21:59.766Z,5.92
2018-12-26T09:24:49.002Z,6.60
2018-12-26T09:27:39.203Z,6.20
2018-12-26T09:33:38.494Z,6.95
2018-12-26T09:36:47.118Z,5.58
2018-12-26T09:39:55.438Z,5.83
2018-12-26T09:42:44.747Z,6.15
2018-12-26T09:45:33.965Z,5.87
2018-12-26T09:48:26.045Z,5.80
2018-12-26T09:51:15.728Z,6.22
2018-12-26T09:54:24.379Z,5.92
2018-12-26T09:57:33.003Z,5.42
2018-12-26T10:00:41.275Z,5.47
2018-12-26T10:03:49.550Z,5.58
2018-12-26T10:06:57.956Z,4.80
2018-12-26T10:10:06.192Z,6.20
2018-12-26T10:12:55.428Z,6.08
2018-12-26T10:15:44.764Z,6.05
2018-12-26T10:18:34.182Z,5.70
2018-12-26T10:21:16.267Z,5.75
2018-12-26T10:27:11.212Z,5.40
2018-12-26T10:30:00.457Z,5.85
2018-12-26T10:33:08.779Z,4.50
2018-12-26T10:35:58.145Z,5.60
2018-12-26T10:38:47.389Z,5.10
2018-12-26T10:41:36.705Z,5.08
2018-12-26T10:44:45.324Z,4.83
2018-12-26T10:47:34.938Z,5.37
2018-12-26T10:50:43.264Z,4.80
2018-12-26T10:53:51.608Z,5.25
2018-12-26T10:56:40.831Z,5.83
2018-12-26T10:59:49.118Z,5.47
2018-12-26T11:02:57.459Z,5.58
2018-12-26T11:05:46.681Z,6.12
2018-12-26T11:08:36.004Z,6.40
2018-12-26T11:11:25.322Z,6.50
2018-12-26T11:14:14.689Z,5.90
2018-12-26T11:17:04.306Z,5.97
2018-12-26T11:20:12.847Z,6.25
2018-12-26T11:22:54.737Z,6.75
2018-12-26T11:26:02.970Z,6.22
2018-12-26T11:29:18.316Z,7.33
2018-12-26T11:32:02.181Z,7.40
2018-12-26T11:34:51.500Z,6.55
2018-12-26T11:37:40.946Z,7.15
2018-12-26T11:40:30.308Z,7.37
2018-12-26T11:43:19.701Z,7.40
2018-12-26T11:46:08.996Z,6.87
2018-12-26T11:49:17.609Z,6.80
2018-12-26T11:52:25.974Z,7.05
2018-12-26T11:55:34.390Z,6.95
2018-12-26T11:58:23.729Z,6.83
2018-12-26T12:01:13.603Z,7.25
2018-12-26T12:04:03.690Z,8.35
2018-12-26T12:06:52.932Z,8.20
2018-12-26T12:10:01.273Z,7.78
2018-12-26T12:13:09.547Z,8.13
2018-12-26T12:19:07.103Z,9.05
2018-12-26T12:21:48.924Z,9.20
2018-12-26T12:24:57.287Z,8.95
2018-12-26T12:27:46.539Z,10.48
2018-12-26T12:30:35.858Z,9.40
2018-12-26T12:33:25.260Z,9.53
2018-12-26T12:36:33.572Z,10.03
2018-12-26T12:39:23.063Z,10.38
2018-12-26T12:42:31.396Z,10.40
2018-12-26T12:45:39.735Z,9.90
2018-12-26T12:48:29.147Z,11.70
2018-12-26T12:51:18.523Z,10.90
2018-12-26T12:54:27.126Z,11.00
2018-12-26T12:57:35.491Z,9.65
2018-12-26T13:00:43.756Z,10.40
2018-12-26T13:03:33.067Z,7.80
2018-12-26T13:06:41.809Z,11.45
2018-12-26T13:09:50.153Z,10.53
2018-12-26T13:15:54.442Z,10.23
2018-12-26T13:18:45.402Z,11.03
2018-12-26T13:21:27.802Z,10.05
2018-12-26T13:24:17.050Z,12.10
2018-12-26T13:27:25.377Z,12.18
2018-12-26T13:30:14.759Z,11.63
2018-12-26T13:33:23.024Z,11.40
2018-12-26T13:36:14.258Z,11.25
2018-12-26T13:42:00.554Z,11.15
2018-12-26T13:44:50.989Z,10.50
2018-12-26T13:47:21.405Z,11.08
2018-12-26T13:50:29.926Z,11.22
2018-12-26T13:53:19.253Z,10.88
2018-12-26T13:56:08.936Z,10.45
2018-12-26T13:58:58.257Z,10.15
2018-12-26T14:02:06.500Z,10.50
2018-12-26T14:04:55.902Z,9.08
2018-12-26T14:08:04.218Z,9.75
2018-12-26T14:10:53.459Z,11.00
2018-12-26T14:13:42.787Z,8.13
2018-12-26T14:16:33.789Z,10.38
2018-12-26T14:19:23.114Z,10.93
2018-12-26T14:22:08.130Z,10.75
2018-12-26T14:24:57.450Z,10.65
2018-12-26T14:28:06.029Z,9.60
2018-12-26T14:30:55.641Z,10.32
2018-12-26T14:33:44.892Z,10.45
2018-12-26T14:36:34.263Z,10.48
2018-12-26T14:39:23.511Z,10.03
2018-12-26T14:42:12.781Z,10.10
2018-12-26T14:45:02.098Z,9.13
2018-12-26T14:47:54.263Z,9.70
2018-12-26T14:51:02.958Z,10.72
2018-12-26T14:53:52.356Z,10.18
2018-12-26T14:56:43.500Z,8.95
2018-12-26T14:59:54.339Z,9.15
2018-12-26T15:06:12.777Z,8.23
2018-12-26T15:09:21.115Z,9.20
2018-12-26T15:12:10.321Z,8.78
2018-12-26T15:14:59.695Z,7.70
2018-12-26T15:17:51.973Z,7.00
2018-12-26T15:20:34.265Z,7.85
2018-12-26T15:23:23.553Z,7.15
2018-12-26T15:26:44.386Z,6.42
2018-12-26T15:29:43.529Z,6.22
2018-12-26T15:32:32.835Z,7.47
2018-12-26T15:35:41.216Z,6.83
2018-12-26T15:38:32.593Z,7.33
2018-12-26T15:41:22.171Z,7.90
2018-12-26T15:44:30.342Z,7.42
2018-12-26T15:47:19.708Z,7.65
2018-12-26T15:50:28.167Z,7.65
2018-12-26T15:53:17.400Z,7.12
2018-12-26T15:56:25.734Z,7.30
2018-12-26T15:59:34.091Z,8.03
2018-12-26T16:02:23.396Z,6.87
2018-12-26T16:05:12.789Z,7.60
2018-12-26T16:08:02.075Z,7.62
2018-12-26T16:11:10.362Z,6.97
2018-12-26T16:14:18.608Z,6.95
2018-12-26T16:17:26.890Z,8.00
2018-12-26T16:20:16.632Z,7.75
2018-12-26T16:22:58.807Z,7.90
2018-12-26T16:26:07.151Z,8.00
2018-12-26T16:29:15.400Z,7.67
2018-12-26T16:32:23.761Z,7.20
2018-12-26T16:35:13.082Z,7.58
2018-12-26T16:38:02.760Z,7.08
2018-12-26T16:40:52.081Z,6.92
2018-12-26T16:44:00.364Z,6.67
2018-12-26T16:46:50.087Z,7.45
2018-12-26T16:49:58.433Z,7.50
2018-12-26T16:52:47.645Z,6.87
2018-12-26T16:55:36.980Z,6.95
2018-12-26T16:58:45.584Z,6.67
2018-12-26T17:01:34.903Z,6.80
2018-12-26T17:04:43.294Z,6.35
2018-12-26T17:07:32.795Z,7.17
2018-12-26T17:10:41.070Z,6.42
2018-12-26T17:13:30.601Z,7.60
2018-12-26T17:16:19.926Z,6.55
2018-12-26T17:19:09.529Z,7.10
2018-12-26T17:21:52.042Z,6.20
2018-12-26T17:25:00.325Z,6.60
2018-12-26T17:27:49.938Z,7.15
2018-12-26T17:31:04.043Z,7.45
2018-12-26T17:33:49.311Z,7.78
2018-12-26T17:36:57.957Z,6.95
2018-12-26T17:39:47.265Z,6.45
2018-12-26T17:42:36.582Z,6.83
2018-12-26T17:45:26.199Z,6.62
2018-12-26T17:48:15.496Z,7.53
2018-12-26T17:51:09.089Z,6.37
2018-12-26T17:54:36.664Z,7.20
2018-12-26T17:57:30.329Z,6.60
2018-12-26T18:00:42.367Z,7.08
2018-12-26T18:06:39.859Z,7.75
2018-12-26T18:09:48.092Z,7.10
2018-12-26T18:12:56.466Z,6.85
2018-12-26T18:16:04.717Z,7.00
2018-12-26T18:18:53.936Z,6.85
2018-12-26T18:21:37.087Z,6.95
2018-12-26T18:24:26.655Z,7.45
2018-12-26T18:30:11.743Z,6.87
2018-12-26T18:33:20.080Z,7.40
2018-12-26T18:36:09.744Z,6.90
2018-12-26T18:39:18.055Z,6.35
2018-12-26T18:42:26.315Z,6.72
2018-12-26T18:45:34.683Z,7.30
2018-12-26T18:48:24.262Z,7.42
2018-12-26T18:51:32.953Z,7.25
2018-12-26T18:54:22.325Z,7.90
2018-12-26T18:57:30.662Z,7.28
2018-12-26T19:00:20.032Z,7.28
2018-12-26T19:03:09.283Z,7.40
2018-12-26T19:06:17.757Z,7.95
2018-12-26T19:12:16.191Z,6.53
2018-12-26T19:18:14.433Z,7.62
2018-12-26T19:21:22.792Z,7.87
2018-12-26T19:24:31.115Z,7.37
2018-12-26T19:27:20.361Z,7.60
2018-12-26T19:30:12.038Z,7.20
2018-12-26T19:33:20.407Z,7.65
2018-12-26T19:36:09.657Z,7.85
2018-12-26T19:38:58.958Z,8.03
2018-12-26T19:41:48.563Z,7.72
2018-12-26T19:44:56.888Z,8.13
2018-12-26T19:47:46.562Z,6.80
2018-12-26T19:50:54.825Z,8.03
2018-12-26T19:53:44.074Z,8.15
2018-12-26T19:56:52.383Z,7.95
2018-12-26T20:00:00.626Z,7.65
2018-12-26T20:03:08.979Z,7.58
2018-12-26T20:05:58.555Z,7.78
2018-12-26T20:08:48.134Z,8.00
2018-12-26T20:11:38.533Z,8.75
2018-12-26T20:14:28.399Z,8.10
2018-12-26T20:17:17.637Z,8.25
2018-12-26T20:20:07.477Z,8.33
2018-12-26T20:22:49.811Z,8.88
2018-12-26T20:25:39.108Z,8.10
2018-12-26T20:28:47.487Z,7.03
2018-12-26T20:31:37.132Z,8.00
2018-12-26T20:34:45.395Z,8.08
2018-12-26T20:37:35.006Z,7.45
2018-12-26T20:40:24.236Z,8.23
2018-12-26T20:43:13.578Z,8.70
2018-12-26T20:46:21.822Z,8.25
2018-12-26T20:49:11.087Z,9.58
2018-12-26T20:52:00.354Z,8.00
2018-12-26T20:55:08.611Z,7.58
2018-12-26T20:57:57.840Z,7.83
2018-12-26T21:00:47.303Z,9.60
2018-12-26T21:03:36.545Z,8.43
2018-12-26T21:06:25.788Z,8.45
2018-12-26T21:09:15.458Z,8.25
2018-12-26T21:12:04.854Z,9.13
2018-12-26T21:14:54.078Z,8.88
2018-12-26T21:17:43.406Z,8.33
2018-12-26T21:23:33.903Z,8.45
2018-12-26T21:26:42.156Z,9.18
2018-12-26T21:29:31.404Z,9.10
2018-12-26T21:32:20.929Z,10.10
2018-12-26T21:35:29.266Z,9.23
2018-12-26T21:38:18.597Z,9.55
2018-12-26T21:41:07.905Z,9.38
2018-12-26T21:43:59.464Z,9.75
2018-12-26T21:46:49.082Z,10.15
2018-12-26T21:49:57.453Z,8.70
2018-12-26T21:52:50.101Z,10.58
2018-12-26T21:55:39.720Z,9.30
2018-12-26T21:58:49.716Z,10.23
2018-12-26T22:01:38.942Z,10.05
2018-12-26T22:04:47.285Z,9.80
2018-12-26T22:07:36.651Z,9.78
2018-12-26T22:10:27.018Z,9.38
2018-12-26T22:13:18.350Z,8.83
2018-12-26T22:16:26.573Z,10.50
2018-12-26T22:19:17.777Z,9.83
2018-12-26T22:22:01.813Z,9.80
2018-12-26T22:24:53.082Z,10.80
2018-12-26T22:30:38.990Z,10.18
2018-12-26T22:33:28.689Z,9.70
2018-12-26T22:36:18.282Z,11.38
2018-12-26T22:39:26.755Z,10.90
2018-12-26T22:42:15.971Z,11.73
2018-12-26T22:45:06.055Z,10.82
2018-12-26T22:48:14.852Z,9.98
2018-12-26T22:51:26.395Z,11.20
2018-12-26T22:54:16.213Z,10.28
2018-12-26T22:57:05.432Z,10.40
2018-12-26T23:00:13.735Z,9.93
2018-12-26T23:03:22.084Z,10.53
2018-12-26T23:05:52.437Z,11.10
2018-12-26T23:09:01.342Z,9.70
2018-12-26T23:11:50.692Z,12.05
2018-12-26T23:14:39.979Z,11.63
2018-12-26T23:18:01.803Z,11.90
2018-12-26T23:20:39.704Z,12.78
2018-12-26T23:23:21.879Z,11.85
2018-12-26T23:26:30.200Z,11.30
2018-12-26T23:29:19.462Z,11.12
2018-12-26T23:32:08.756Z,11.78
2018-12-26T23:34:58.007Z,11.12
2018-12-26T23:37:47.346Z,10.35
2018-12-26T23:40:36.615Z,11.18
2018-12-26T23:43:25.924Z,11.08
2018-12-26T23:46:15.242Z,11.65
2018-12-26T23:49:23.590Z,10.03
2018-12-26T23:52:12.812Z,10.98
2018-12-26T23:55:21.213Z,11.68
2018-12-26T23:58:43.851Z,11.03
